Airfield :







YOU CAN JOIN US ON...

 
LOGIN :

Register | Disclaimer

   EN    FR    IT 

 









Legend :    VFR   Marginal VFR   IFR   Intensive IFR   Very Intensive IFR
Visi :
Ceiling :
>= 8 km
>= 3000ft
5 to 8 km
1000 to 3000 ft
1500m to 5 km
500 to 1000 ft
800 to 1500m
200 to 500 ft
< 800m
< 200 ft
Symbols :   Thunderstorms  Fog  Heavy snow  Heavy precipitations  Wind > 20 kt







- Airport Elevation : 215 ft
- IATA code : MSS


KMSS - Massena International Richards Field

CURRENT METAR :
  • 200853Z AUTO 00000KT 10SM CLR 08/06 A3021 RMK AO2 SLP232 T00780061 56002 $

EXPIRED METARs :
  • 200753Z AUTO 00000KT 7SM CLR 08/07 A3021 RMK AO2 SLP233 T00830072 $
  • 200653Z AUTO 00000KT 10SM CLR 09/08 A3021 RMK AO2 SLP233 T00940078 $

TAF KMSS
Valid from the 20 at 06:00 until the 21 at 06:00 UTC


200532Z 2006/2106 00000KT P6SM BKN200
FM200900 00000KT P6SM SCT150 SCT200
FM201400 23006KT P6SM SCT150
FM202000 25007KT P6SM FEW200
FM202300 VRB04KT P6SM FEW250
No reported NOTAMs for that airfield.



MET'MAP, your aeronautical weather chart ! - Copyright ORBIFLY December 2007 - Disclaimer

ORBIFLY MET'MAP TEAM :

Programming & Development : Alexandra Zaïnal
Concept & Development : Baudouin d'Aumeries
Co-Development & Prog : Marc-Olivier Méhu
Technical & hardware support : Manuel Goepfert

Contact : metmap@orbifly.com




SOURCES & CREDITS :

   NOAA